MUHA/HAV METAR and TAF weather

Enter ICAO airport designator
Station Type Date Time Source
MUHA METAR 2022/09/26 08:50 UTC NOAA

MUHA 260850Z VRB02KT 9000 SCT030 23/22 Q1008


Station Type Date Time Source
MUHA Decoded METAR 2022/09/26 08:50 UTC NOAA

Aeropuerto Jose Marti, Rancho-Boyeros, Habana, Cuba (MUHA) 22-59N 082-24W 75M
Sep 26, 2022 - 04:50 AM EDT / 2022.09.26 0850 UTC
Wind: Variable at 2 MPH (2 KT):0
Visibility: 5 mile(s):0
Sky conditions: partly cloudy
Temperature: 73 F (23 C)
Dew Point: 71 F (22 C)
Relative Humidity: 94%
Pressure (altimeter): 29.77 in. Hg (1008 hPa)
ob: MUHA 260850Z VRB02KT 9000 SCT030 23/22 Q1008
cycle: 9

Station Type Date Time Source
MUHA TAF 2022/09/26 06:03 UTC NOAA

TAF MUHA 260500Z 2606/2706 VRB03KT 9000 SCT030
BECMG 2615/2617 09009KT
TEMPO 2618/2706 2000 TSRA SCT018CB BKN020

Example: see airport list